North Canton, Ohio
Current Conditions -  °F | °C
As of 10:51 AM on Friday 21 Nov 2014 (Local Time) from KCAK Reporting Station
Light Snow Light Snow  
Wind Chill: 14°   Ceiling: 4100
Heat Index: 23°   Visibility: 10mi
Dew Point: 11°   Wind: 8mph
Humidity: 60%   Direction: 290°WNW
Pressure: 30.45"   Gusts: NA
Location:  40.88°N, 81.4°W
Report Text: KCAK 211551Z 29007KT 10SM -SN BKN041 M05/M12 A3045 RMK AO2 SLP330 SNE04 P0000 T10501117
Loading
Personal Weather Stations






























Interactive Weather Map New forecast layout! Learn more

10-Day Weather Forecast

Advertisements
Track Severe Weather on mobile